sensor_id;sensor_type;location;lat;lon;timestamp;temperature;humidity
42615;DHT22;28754;47.700;7.924;2022-09-09T00:05:29;14.90;99.90
42615;DHT22;28754;47.700;7.924;2022-09-09T00:08:27;15.00;99.90
42615;DHT22;28754;47.700;7.924;2022-09-09T00:12:12;15.20;99.90
42615;DHT22;28754;47.700;7.924;2022-09-09T00:14:57;15.20;99.90
42615;DHT22;28754;47.700;7.924;2022-09-09T00:17:54;15.20;99.90
42615;DHT22;28754;47.700;7.924;2022-09-09T00:21:06;15.40;99.90
42615;DHT22;28754;47.700;7.924;2022-09-09T00:23:57;15.50;99.90
42615;DHT22;28754;47.700;7.924;2022-09-09T00:26:49;15.60;99.90
42615;DHT22;28754;47.700;7.924;2022-09-09T00:32:42;15.80;99.90
42615;DHT22;28754;47.700;7.924;2022-09-09T00:35:38;15.80;99.90
42615;DHT22;28754;47.700;7.924;2022-09-09T00:44:37;15.60;99.90
42615;DHT22;28754;47.700;7.924;2022-09-09T00:47:45;15.50;99.90
42615;DHT22;28754;47.700;7.924;2022-09-09T00:57:13;15.40;99.90
42615;DHT22;28754;47.700;7.924;2022-09-09T01:00:21;15.40;99.90
42615;DHT22;28754;47.700;7.924;2022-09-09T01:06:35;15.50;99.90
42615;DHT22;28754;47.700;7.924;2022-09-09T01:09:32;15.50;99.90
42615;DHT22;28754;47.700;7.924;2022-09-09T01:12:38;15.60;99.90
42615;DHT22;28754;47.700;7.924;2022-09-09T01:15:31;15.60;99.90
42615;DHT22;28754;47.700;7.924;2022-09-09T01:18:27;15.70;99.90
42615;DHT22;28754;47.700;7.924;2022-09-09T01:21:49;15.60;99.90
42615;DHT22;28754;47.700;7.924;2022-09-09T01:25:15;15.60;99.90
42615;DHT22;28754;47.700;7.924;2022-09-09T01:28:26;15.60;99.90
42615;DHT22;28754;47.700;7.924;2022-09-09T01:31:26;15.40;99.90
42615;DHT22;28754;47.700;7.924;2022-09-09T01:34:17;15.30;99.90
42615;DHT22;28754;47.700;7.924;2022-09-09T01:37:10;15.30;99.90
42615;DHT22;28754;47.700;7.924;2022-09-09T01:39:59;15.20;99.90
42615;DHT22;28754;47.700;7.924;2022-09-09T01:42:46;15.10;99.90
42615;DHT22;28754;47.700;7.924;2022-09-09T01:45:33;15.20;99.90
42615;DHT22;28754;47.700;7.924;2022-09-09T01:48:22;15.10;99.90
42615;DHT22;28754;47.700;7.924;2022-09-09T01:51:21;15.00;99.90
42615;DHT22;28754;47.700;7.924;2022-09-09T01:54:09;15.10;99.90
42615;DHT22;28754;47.700;7.924;2022-09-09T01:57:11;15.20;99.90
42615;DHT22;28754;47.700;7.924;2022-09-09T02:00:20;15.20;99.90
42615;DHT22;28754;47.700;7.924;2022-09-09T02:03:22;15.00;99.90
42615;DHT22;28754;47.700;7.924;2022-09-09T02:09:23;14.80;99.90
42615;DHT22;28754;47.700;7.924;2022-09-09T02:12:16;14.80;99.90
42615;DHT22;28754;47.700;7.924;2022-09-09T02:15:24;14.80;99.90
42615;DHT22;28754;47.700;7.924;2022-09-09T02:18:24;14.90;99.90
42615;DHT22;28754;47.700;7.924;2022-09-09T02:21:23;14.90;99.90
42615;DHT22;28754;47.700;7.924;2022-09-09T02:24:15;15.00;99.90
42615;DHT22;28754;47.700;7.924;2022-09-09T02:27:10;15.00;99.90
42615;DHT22;28754;47.700;7.924;2022-09-09T02:30:00;15.00;99.90
42615;DHT22;28754;47.700;7.924;2022-09-09T02:33:05;15.00;99.90
42615;DHT22;28754;47.700;7.924;2022-09-09T02:36:05;14.90;99.90
42615;DHT22;28754;47.700;7.924;2022-09-09T02:38:56;14.90;99.90
42615;DHT22;28754;47.700;7.924;2022-09-09T02:41:46;14.90;99.90
42615;DHT22;28754;47.700;7.924;2022-09-09T02:44:34;14.90;99.90
42615;DHT22;28754;47.700;7.924;2022-09-09T02:47:34;14.80;99.90
42615;DHT22;28754;47.700;7.924;2022-09-09T03:00:10;15.00;99.90
42615;DHT22;28754;47.700;7.924;2022-09-09T03:02:57;14.90;99.90
42615;DHT22;28754;47.700;7.924;2022-09-09T03:05:45;14.70;99.90
42615;DHT22;28754;47.700;7.924;2022-09-09T03:08:33;14.60;99.90
42615;DHT22;28754;47.700;7.924;2022-09-09T03:11:20;14.60;99.90
42615;DHT22;28754;47.700;7.924;2022-09-09T03:14:07;14.70;99.90
42615;DHT22;28754;47.700;7.924;2022-09-09T03:16:56;14.60;99.90
42615;DHT22;28754;47.700;7.924;2022-09-09T03:19:48;14.70;99.90
42615;DHT22;28754;47.700;7.924;2022-09-09T03:22:36;14.80;99.90
42615;DHT22;28754;47.700;7.924;2022-09-09T03:25:24;15.00;99.90
42615;DHT22;28754;47.700;7.924;2022-09-09T03:28:11;15.00;99.90
42615;DHT22;28754;47.700;7.924;2022-09-09T03:31:00;14.90;99.90
42615;DHT22;28754;47.700;7.924;2022-09-09T03:33:51;15.00;99.90
42615;DHT22;28754;47.700;7.924;2022-09-09T03:36:40;15.00;99.90
42615;DHT22;28754;47.700;7.924;2022-09-09T03:39:27;15.00;99.90
42615;DHT22;28754;47.700;7.924;2022-09-09T03:42:16;15.00;99.90
42615;DHT22;28754;47.700;7.924;2022-09-09T03:45:09;15.10;99.90
42615;DHT22;28754;47.700;7.924;2022-09-09T03:47:58;15.00;99.90
42615;DHT22;28754;47.700;7.924;2022-09-09T03:50:52;14.90;99.90
42615;DHT22;28754;47.700;7.924;2022-09-09T03:53:40;14.90;99.90
42615;DHT22;28754;47.700;7.924;2022-09-09T03:56:27;14.90;99.90
42615;DHT22;28754;47.700;7.924;2022-09-09T03:59:13;14.80;99.90
42615;DHT22;28754;47.700;7.924;2022-09-09T04:02:02;14.80;99.90
42615;DHT22;28754;47.700;7.924;2022-09-09T04:04:49;14.80;99.90
42615;DHT22;28754;47.700;7.924;2022-09-09T04:07:36;14.80;99.90
42615;DHT22;28754;47.700;7.924;2022-09-09T04:10:23;14.80;99.90
42615;DHT22;28754;47.700;7.924;2022-09-09T04:13:09;14.80;99.90
42615;DHT22;28754;47.700;7.924;2022-09-09T04:15:59;14.70;99.90
42615;DHT22;28754;47.700;7.924;2022-09-09T04:18:47;14.70;99.90
42615;DHT22;28754;47.700;7.924;2022-09-09T04:21:36;14.70;99.90
42615;DHT22;28754;47.700;7.924;2022-09-09T04:24:23;14.60;99.90
42615;DHT22;28754;47.700;7.924;2022-09-09T04:27:10;14.60;99.90
42615;DHT22;28754;47.700;7.924;2022-09-09T04:29:57;14.70;99.90
42615;DHT22;28754;47.700;7.924;2022-09-09T04:32:45;14.80;99.90
42615;DHT22;28754;47.700;7.924;2022-09-09T04:35:33;14.80;99.90
42615;DHT22;28754;47.700;7.924;2022-09-09T04:38:21;14.70;99.90
42615;DHT22;28754;47.700;7.924;2022-09-09T04:41:10;14.70;99.90
42615;DHT22;28754;47.700;7.924;2022-09-09T04:43:59;14.90;99.90
42615;DHT22;28754;47.700;7.924;2022-09-09T04:46:47;14.90;99.90
42615;DHT22;28754;47.700;7.924;2022-09-09T04:49:34;14.90;99.90
42615;DHT22;28754;47.700;7.924;2022-09-09T04:52:21;14.80;99.90
42615;DHT22;28754;47.700;7.924;2022-09-09T04:55:08;14.80;99.90
42615;DHT22;28754;47.700;7.924;2022-09-09T04:57:56;14.90;99.90
42615;DHT22;28754;47.700;7.924;2022-09-09T05:00:44;14.90;99.90
42615;DHT22;28754;47.700;7.924;2022-09-09T05:03:31;14.90;99.90
42615;DHT22;28754;47.700;7.924;2022-09-09T05:06:19;14.80;99.90
42615;DHT22;28754;47.700;7.924;2022-09-09T05:09:09;14.80;99.90
42615;DHT22;28754;47.700;7.924;2022-09-09T05:11:56;14.70;99.90
42615;DHT22;28754;47.700;7.924;2022-09-09T05:14:55;14.80;99.90
42615;DHT22;28754;47.700;7.924;2022-09-09T05:17:42;14.90;99.90
42615;DHT22;28754;47.700;7.924;2022-09-09T05:20:30;14.80;99.90
42615;DHT22;28754;47.700;7.924;2022-09-09T05:23:16;15.00;99.90
42615;DHT22;28754;47.700;7.924;2022-09-09T05:26:04;15.00;99.90
42615;DHT22;28754;47.700;7.924;2022-09-09T05:28:52;15.00;99.90
42615;DHT22;28754;47.700;7.924;2022-09-09T05:31:40;14.90;99.90
42615;DHT22;28754;47.700;7.924;2022-09-09T05:34:31;15.00;99.90
42615;DHT22;28754;47.700;7.924;2022-09-09T05:37:18;15.00;99.90
42615;DHT22;28754;47.700;7.924;2022-09-09T05:40:05;14.70;99.90
42615;DHT22;28754;47.700;7.924;2022-09-09T05:42:52;14.80;99.90
42615;DHT22;28754;47.700;7.924;2022-09-09T05:45:40;14.80;99.90
42615;DHT22;28754;47.700;7.924;2022-09-09T05:48:35;14.80;99.90
42615;DHT22;28754;47.700;7.924;2022-09-09T05:51:28;14.90;99.90
42615;DHT22;28754;47.700;7.924;2022-09-09T05:54:22;14.90;99.90
42615;DHT22;28754;47.700;7.924;2022-09-09T05:57:12;15.00;99.90
42615;DHT22;28754;47.700;7.924;2022-09-09T05:59:58;15.10;99.90
42615;DHT22;28754;47.700;7.924;2022-09-09T06:02:51;15.00;99.90
42615;DHT22;28754;47.700;7.924;2022-09-09T06:05:40;15.20;99.90
42615;DHT22;28754;47.700;7.924;2022-09-09T06:08:27;15.40;99.90
42615;DHT22;28754;47.700;7.924;2022-09-09T06:11:17;15.40;99.90
42615;DHT22;28754;47.700;7.924;2022-09-09T06:14:06;15.30;99.90
42615;DHT22;28754;47.700;7.924;2022-09-09T06:16:54;15.30;99.90
42615;DHT22;28754;47.700;7.924;2022-09-09T06:19:43;15.40;99.90
42615;DHT22;28754;47.700;7.924;2022-09-09T06:22:29;15.50;99.90
42615;DHT22;28754;47.700;7.924;2022-09-09T06:25:16;15.50;99.90
42615;DHT22;28754;47.700;7.924;2022-09-09T06:28:04;15.60;99.90
42615;DHT22;28754;47.700;7.924;2022-09-09T06:30:57;15.60;99.90
42615;DHT22;28754;47.700;7.924;2022-09-09T06:33:45;15.40;99.90
42615;DHT22;28754;47.700;7.924;2022-09-09T06:36:34;15.00;99.90
42615;DHT22;28754;47.700;7.924;2022-09-09T06:39:23;14.60;99.90
42615;DHT22;28754;47.700;7.924;2022-09-09T06:42:10;14.70;99.90
42615;DHT22;28754;47.700;7.924;2022-09-09T06:45:26;14.70;99.90
42615;DHT22;28754;47.700;7.924;2022-09-09T06:48:16;14.70;99.90
42615;DHT22;28754;47.700;7.924;2022-09-09T06:51:04;14.60;99.90
42615;DHT22;28754;47.700;7.924;2022-09-09T06:53:56;14.80;99.90
42615;DHT22;28754;47.700;7.924;2022-09-09T06:56:45;15.00;99.90
42615;DHT22;28754;47.700;7.924;2022-09-09T06:59:39;15.50;99.90
42615;DHT22;28754;47.700;7.924;2022-09-09T07:02:26;16.40;99.90
42615;DHT22;28754;47.700;7.924;2022-09-09T07:05:13;16.40;99.90
42615;DHT22;28754;47.700;7.924;2022-09-09T07:08:03;15.80;99.90
42615;DHT22;28754;47.700;7.924;2022-09-09T07:10:51;15.50;99.90
42615;DHT22;28754;47.700;7.924;2022-09-09T07:13:40;15.50;99.90
42615;DHT22;28754;47.700;7.924;2022-09-09T07:16:29;15.00;99.90
42615;DHT22;28754;47.700;7.924;2022-09-09T07:19:19;15.00;99.90
42615;DHT22;28754;47.700;7.924;2022-09-09T07:22:09;15.00;99.90
42615;DHT22;28754;47.700;7.924;2022-09-09T07:24:57;15.00;99.90
42615;DHT22;28754;47.700;7.924;2022-09-09T07:27:45;14.90;99.90
42615;DHT22;28754;47.700;7.924;2022-09-09T07:30:32;15.00;99.90
42615;DHT22;28754;47.700;7.924;2022-09-09T07:33:18;14.80;99.90
42615;DHT22;28754;47.700;7.924;2022-09-09T07:36:08;14.80;99.90
42615;DHT22;28754;47.700;7.924;2022-09-09T07:39:00;14.90;99.90
42615;DHT22;28754;47.700;7.924;2022-09-09T07:41:53;15.10;99.90
42615;DHT22;28754;47.700;7.924;2022-09-09T07:44:42;15.10;99.90
42615;DHT22;28754;47.700;7.924;2022-09-09T07:47:35;15.10;99.90
42615;DHT22;28754;47.700;7.924;2022-09-09T07:50:23;15.10;99.90
42615;DHT22;28754;47.700;7.924;2022-09-09T07:53:10;15.40;99.90
42615;DHT22;28754;47.700;7.924;2022-09-09T07:56:09;15.70;99.90
42615;DHT22;28754;47.700;7.924;2022-09-09T07:58:58;15.50;99.90
42615;DHT22;28754;47.700;7.924;2022-09-09T08:01:50;15.10;99.90
42615;DHT22;28754;47.700;7.924;2022-09-09T08:04:43;15.00;99.90
42615;DHT22;28754;47.700;7.924;2022-09-09T08:07:30;15.00;99.90
42615;DHT22;28754;47.700;7.924;2022-09-09T08:10:18;15.00;99.90
42615;DHT22;28754;47.700;7.924;2022-09-09T08:13:08;15.30;99.90
42615;DHT22;28754;47.700;7.924;2022-09-09T08:15:55;15.60;99.90
42615;DHT22;28754;47.700;7.924;2022-09-09T08:18:52;15.60;99.90
42615;DHT22;28754;47.700;7.924;2022-09-09T08:21:41;16.00;99.90
42615;DHT22;28754;47.700;7.924;2022-09-09T08:24:30;16.40;99.90
42615;DHT22;28754;47.700;7.924;2022-09-09T08:27:16;17.10;99.90
42615;DHT22;28754;47.700;7.924;2022-09-09T08:30:04;17.40;99.90
42615;DHT22;28754;47.700;7.924;2022-09-09T08:32:51;18.10;99.90
42615;DHT22;28754;47.700;7.924;2022-09-09T08:35:38;17.90;99.90
42615;DHT22;28754;47.700;7.924;2022-09-09T08:38:25;17.30;99.90
42615;DHT22;28754;47.700;7.924;2022-09-09T08:48:13;18.50;99.90
42615;DHT22;28754;47.700;7.924;2022-09-09T08:51:10;18.30;99.90
42615;DHT22;28754;47.700;7.924;2022-09-09T08:54:02;18.30;99.90
42615;DHT22;28754;47.700;7.924;2022-09-09T08:56:51;18.40;99.90
42615;DHT22;28754;47.700;7.924;2022-09-09T08:59:38;18.20;99.90
42615;DHT22;28754;47.700;7.924;2022-09-09T09:02:39;17.60;99.90
42615;DHT22;28754;47.700;7.924;2022-09-09T09:05:49;18.00;99.90
42615;DHT22;28754;47.700;7.924;2022-09-09T09:11:54;16.90;99.90
42615;DHT22;28754;47.700;7.924;2022-09-09T09:14:50;16.80;99.90
42615;DHT22;28754;47.700;7.924;2022-09-09T09:17:39;17.10;99.90
42615;DHT22;28754;47.700;7.924;2022-09-09T09:21:02;16.90;99.90
42615;DHT22;28754;47.700;7.924;2022-09-09T09:23:59;16.60;99.90
42615;DHT22;28754;47.700;7.924;2022-09-09T09:26:50;17.00;99.90
42615;DHT22;28754;47.700;7.924;2022-09-09T09:29:42;17.10;99.90
42615;DHT22;28754;47.700;7.924;2022-09-09T09:32:33;16.90;99.90
42615;DHT22;28754;47.700;7.924;2022-09-09T09:35:24;16.90;99.90
42615;DHT22;28754;47.700;7.924;2022-09-09T09:38:20;17.10;99.90
42615;DHT22;28754;47.700;7.924;2022-09-09T09:41:11;17.20;99.90
42615;DHT22;28754;47.700;7.924;2022-09-09T09:43:58;17.80;99.90
42615;DHT22;28754;47.700;7.924;2022-09-09T09:46:48;18.10;99.90
42615;DHT22;28754;47.700;7.924;2022-09-09T09:49:36;18.60;99.90
42615;DHT22;28754;47.700;7.924;2022-09-09T09:52:25;18.00;99.90
42615;DHT22;28754;47.700;7.924;2022-09-09T09:55:15;18.80;99.90
42615;DHT22;28754;47.700;7.924;2022-09-09T09:58:14;19.30;99.90
42615;DHT22;28754;47.700;7.924;2022-09-09T10:01:02;19.40;99.90
42615;DHT22;28754;47.700;7.924;2022-09-09T10:03:55;19.50;99.90
42615;DHT22;28754;47.700;7.924;2022-09-09T10:06:46;19.40;99.90
42615;DHT22;28754;47.700;7.924;2022-09-09T10:09:33;19.80;99.90
42615;DHT22;28754;47.700;7.924;2022-09-09T10:16:22;19.70;99.90
42615;DHT22;28754;47.700;7.924;2022-09-09T10:19:30;19.70;99.90
42615;DHT22;28754;47.700;7.924;2022-09-09T10:22:32;19.70;99.90
42615;DHT22;28754;47.700;7.924;2022-09-09T10:25:31;19.50;99.90
42615;DHT22;28754;47.700;7.924;2022-09-09T10:29:11;19.10;99.90
42615;DHT22;28754;47.700;7.924;2022-09-09T10:32:28;19.20;99.90
42615;DHT22;28754;47.700;7.924;2022-09-09T10:35:36;19.60;99.90
42615;DHT22;28754;47.700;7.924;2022-09-09T10:38:42;19.10;99.90
42615;DHT22;28754;47.700;7.924;2022-09-09T10:50:50;19.40;99.90
42615;DHT22;28754;47.700;7.924;2022-09-09T10:53:51;19.70;99.90
42615;DHT22;28754;47.700;7.924;2022-09-09T10:56:41;19.60;99.90
42615;DHT22;28754;47.700;7.924;2022-09-09T10:59:35;19.60;99.90
42615;DHT22;28754;47.700;7.924;2022-09-09T11:02:28;19.70;99.90
42615;DHT22;28754;47.700;7.924;2022-09-09T11:05:31;19.40;99.90
42615;DHT22;28754;47.700;7.924;2022-09-09T11:08:34;19.80;99.90
42615;DHT22;28754;47.700;7.924;2022-09-09T11:11:29;20.00;99.90
42615;DHT22;28754;47.700;7.924;2022-09-09T11:14:29;20.70;99.90
42615;DHT22;28754;47.700;7.924;2022-09-09T11:17:26;20.20;99.90
42615;DHT22;28754;47.700;7.924;2022-09-09T11:20:16;18.80;99.90
42615;DHT22;28754;47.700;7.924;2022-09-09T11:23:15;18.40;99.90
42615;DHT22;28754;47.700;7.924;2022-09-09T11:26:06;18.80;99.90
42615;DHT22;28754;47.700;7.924;2022-09-09T11:36:59;19.20;99.90
42615;DHT22;28754;47.700;7.924;2022-09-09T11:42:23;18.90;99.90
42615;DHT22;28754;47.700;7.924;2022-09-09T11:45:23;18.80;99.90
42615;DHT22;28754;47.700;7.924;2022-09-09T11:48:32;19.70;99.90
42615;DHT22;28754;47.700;7.924;2022-09-09T11:51:31;20.00;99.90
42615;DHT22;28754;47.700;7.924;2022-09-09T11:54:32;20.00;99.90
42615;DHT22;28754;47.700;7.924;2022-09-09T11:57:39;20.20;99.90
42615;DHT22;28754;47.700;7.924;2022-09-09T12:03:46;21.10;99.90
42615;DHT22;28754;47.700;7.924;2022-09-09T12:06:51;21.60;99.90
42615;DHT22;28754;47.700;7.924;2022-09-09T12:09:50;22.20;99.90
42615;DHT22;28754;47.700;7.924;2022-09-09T12:12:39;21.90;99.90
42615;DHT22;28754;47.700;7.924;2022-09-09T12:15:28;22.30;99.90
42615;DHT22;28754;47.700;7.924;2022-09-09T12:18:37;20.60;99.90
42615;DHT22;28754;47.700;7.924;2022-09-09T12:24:43;20.30;99.90
42615;DHT22;28754;47.700;7.924;2022-09-09T12:28:11;20.50;99.90
42615;DHT22;28754;47.700;7.924;2022-09-09T12:31:06;20.90;99.90
42615;DHT22;28754;47.700;7.924;2022-09-09T12:34:02;21.20;99.90
42615;DHT22;28754;47.700;7.924;2022-09-09T12:37:16;21.10;99.90
42615;DHT22;28754;47.700;7.924;2022-09-09T12:40:18;21.20;99.90
42615;DHT22;28754;47.700;7.924;2022-09-09T12:43:21;21.20;99.90
42615;DHT22;28754;47.700;7.924;2022-09-09T12:46:59;21.00;99.90
42615;DHT22;28754;47.700;7.924;2022-09-09T12:49:37;21.20;99.90
42615;DHT22;28754;47.700;7.924;2022-09-09T12:52:35;21.00;99.90
42615;DHT22;28754;47.700;7.924;2022-09-09T12:55:36;21.60;99.90
42615;DHT22;28754;47.700;7.924;2022-09-09T12:58:25;21.40;99.90
42615;DHT22;28754;47.700;7.924;2022-09-09T13:01:26;21.00;99.90
42615;DHT22;28754;47.700;7.924;2022-09-09T13:04:20;21.30;99.90
42615;DHT22;28754;47.700;7.924;2022-09-09T13:07:11;21.20;99.90
42615;DHT22;28754;47.700;7.924;2022-09-09T13:09:58;20.60;99.90
42615;DHT22;28754;47.700;7.924;2022-09-09T13:12:45;20.30;99.90
42615;DHT22;28754;47.700;7.924;2022-09-09T13:15:31;21.00;99.90
42615;DHT22;28754;47.700;7.924;2022-09-09T13:18:22;20.50;99.90
42615;DHT22;28754;47.700;7.924;2022-09-09T13:21:11;20.00;99.90
42615;DHT22;28754;47.700;7.924;2022-09-09T13:23:58;19.50;99.90
42615;DHT22;28754;47.700;7.924;2022-09-09T13:27:04;19.30;99.90
42615;DHT22;28754;47.700;7.924;2022-09-09T13:30:40;19.50;99.90
42615;DHT22;28754;47.700;7.924;2022-09-09T13:33:34;19.50;99.90
42615;DHT22;28754;47.700;7.924;2022-09-09T13:36:31;19.40;99.90
42615;DHT22;28754;47.700;7.924;2022-09-09T13:39:20;19.10;99.90
42615;DHT22;28754;47.700;7.924;2022-09-09T13:42:24;19.00;99.90
42615;DHT22;28754;47.700;7.924;2022-09-09T13:45:16;18.60;99.90
42615;DHT22;28754;47.700;7.924;2022-09-09T13:48:09;18.90;99.90
42615;DHT22;28754;47.700;7.924;2022-09-09T13:51:04;19.10;99.90
42615;DHT22;28754;47.700;7.924;2022-09-09T13:53:51;19.60;99.90
42615;DHT22;28754;47.700;7.924;2022-09-09T13:56:40;20.30;99.90
42615;DHT22;28754;47.700;7.924;2022-09-09T13:59:27;20.30;99.90
42615;DHT22;28754;47.700;7.924;2022-09-09T14:02:15;20.90;99.90
42615;DHT22;28754;47.700;7.924;2022-09-09T14:05:03;23.00;99.90
42615;DHT22;28754;47.700;7.924;2022-09-09T14:07:50;25.40;99.90
42615;DHT22;28754;47.700;7.924;2022-09-09T14:10:37;26.40;99.90
42615;DHT22;28754;47.700;7.924;2022-09-09T14:13:23;26.60;99.90
42615;DHT22;28754;47.700;7.924;2022-09-09T14:16:10;26.20;99.90
42615;DHT22;28754;47.700;7.924;2022-09-09T14:18:57;26.10;99.90
42615;DHT22;28754;47.700;7.924;2022-09-09T14:21:45;25.50;99.90
42615;DHT22;28754;47.700;7.924;2022-09-09T14:24:32;25.30;99.90
42615;DHT22;28754;47.700;7.924;2022-09-09T14:27:19;24.70;99.90
42615;DHT22;28754;47.700;7.924;2022-09-09T14:30:06;25.00;99.90
42615;DHT22;28754;47.700;7.924;2022-09-09T14:32:53;25.00;99.90
42615;DHT22;28754;47.700;7.924;2022-09-09T14:35:40;24.40;99.90
42615;DHT22;28754;47.700;7.924;2022-09-09T14:38:33;24.40;99.90
42615;DHT22;28754;47.700;7.924;2022-09-09T14:41:25;24.30;99.90
42615;DHT22;28754;47.700;7.924;2022-09-09T14:44:11;22.70;99.90
42615;DHT22;28754;47.700;7.924;2022-09-09T14:46:58;22.10;99.90
42615;DHT22;28754;47.700;7.924;2022-09-09T14:49:44;21.70;99.90
42615;DHT22;28754;47.700;7.924;2022-09-09T14:52:32;21.40;99.90
42615;DHT22;28754;47.700;7.924;2022-09-09T14:55:19;21.30;99.90
42615;DHT22;28754;47.700;7.924;2022-09-09T14:58:06;21.10;99.90
42615;DHT22;28754;47.700;7.924;2022-09-09T15:00:52;21.60;99.90
42615;DHT22;28754;47.700;7.924;2022-09-09T15:03:40;21.40;99.90
42615;DHT22;28754;47.700;7.924;2022-09-09T15:06:30;21.00;99.90
42615;DHT22;28754;47.700;7.924;2022-09-09T15:09:19;20.70;99.90
42615;DHT22;28754;47.700;7.924;2022-09-09T15:12:06;20.80;99.90
42615;DHT22;28754;47.700;7.924;2022-09-09T15:14:53;21.20;99.90
42615;DHT22;28754;47.700;7.924;2022-09-09T15:17:40;21.20;99.90
42615;DHT22;28754;47.700;7.924;2022-09-09T15:20:27;21.70;99.90
42615;DHT22;28754;47.700;7.924;2022-09-09T15:23:14;21.60;99.90
42615;DHT22;28754;47.700;7.924;2022-09-09T15:26:03;21.40;99.90
42615;DHT22;28754;47.700;7.924;2022-09-09T15:28:50;20.70;99.90
42615;DHT22;28754;47.700;7.924;2022-09-09T15:31:37;20.40;99.90
42615;DHT22;28754;47.700;7.924;2022-09-09T15:34:24;20.10;99.90
42615;DHT22;28754;47.700;7.924;2022-09-09T15:37:11;20.00;99.90
42615;DHT22;28754;47.700;7.924;2022-09-09T15:40:01;20.00;99.90
42615;DHT22;28754;47.700;7.924;2022-09-09T15:42:48;20.00;99.90
42615;DHT22;28754;47.700;7.924;2022-09-09T15:45:35;20.10;99.90
42615;DHT22;28754;47.700;7.924;2022-09-09T15:48:29;20.20;99.90
42615;DHT22;28754;47.700;7.924;2022-09-09T15:51:18;19.90;99.90
42615;DHT22;28754;47.700;7.924;2022-09-09T15:54:05;19.10;99.90
42615;DHT22;28754;47.700;7.924;2022-09-09T15:56:55;18.70;99.90
42615;DHT22;28754;47.700;7.924;2022-09-09T15:59:43;18.50;99.90
42615;DHT22;28754;47.700;7.924;2022-09-09T16:02:31;18.50;99.90
42615;DHT22;28754;47.700;7.924;2022-09-09T16:05:18;18.50;99.90
42615;DHT22;28754;47.700;7.924;2022-09-09T16:08:04;18.40;99.90
42615;DHT22;28754;47.700;7.924;2022-09-09T16:10:51;18.30;99.90
42615;DHT22;28754;47.700;7.924;2022-09-09T16:13:38;18.20;99.90
42615;DHT22;28754;47.700;7.924;2022-09-09T16:16:28;18.10;99.90
42615;DHT22;28754;47.700;7.924;2022-09-09T16:19:15;17.90;99.90
42615;DHT22;28754;47.700;7.924;2022-09-09T16:22:03;17.60;99.90
42615;DHT22;28754;47.700;7.924;2022-09-09T16:24:50;17.50;99.90
42615;DHT22;28754;47.700;7.924;2022-09-09T16:27:37;17.30;99.90
42615;DHT22;28754;47.700;7.924;2022-09-09T16:30:24;17.20;99.90
42615;DHT22;28754;47.700;7.924;2022-09-09T16:33:10;17.20;99.90
42615;DHT22;28754;47.700;7.924;2022-09-09T16:35:57;17.00;99.90
42615;DHT22;28754;47.700;7.924;2022-09-09T16:38:44;16.90;99.90
42615;DHT22;28754;47.700;7.924;2022-09-09T16:41:31;16.90;99.90
42615;DHT22;28754;47.700;7.924;2022-09-09T16:44:19;16.80;99.90
42615;DHT22;28754;47.700;7.924;2022-09-09T16:47:06;16.80;99.90
42615;DHT22;28754;47.700;7.924;2022-09-09T16:49:52;16.60;99.90
42615;DHT22;28754;47.700;7.924;2022-09-09T16:52:39;16.30;99.90
42615;DHT22;28754;47.700;7.924;2022-09-09T16:55:26;16.40;99.90
42615;DHT22;28754;47.700;7.924;2022-09-09T16:58:12;16.40;99.90
42615;DHT22;28754;47.700;7.924;2022-09-09T17:01:00;16.50;99.90
42615;DHT22;28754;47.700;7.924;2022-09-09T17:03:54;16.50;99.90
42615;DHT22;28754;47.700;7.924;2022-09-09T17:06:42;16.50;99.90
42615;DHT22;28754;47.700;7.924;2022-09-09T17:09:32;16.60;99.90
42615;DHT22;28754;47.700;7.924;2022-09-09T17:12:19;16.70;99.90
42615;DHT22;28754;47.700;7.924;2022-09-09T17:15:06;16.60;99.90
42615;DHT22;28754;47.700;7.924;2022-09-09T17:17:53;16.40;99.90
42615;DHT22;28754;47.700;7.924;2022-09-09T17:20:41;16.40;99.90
42615;DHT22;28754;47.700;7.924;2022-09-09T17:23:28;16.40;99.90
42615;DHT22;28754;47.700;7.924;2022-09-09T17:26:17;16.50;99.90
42615;DHT22;28754;47.700;7.924;2022-09-09T17:29:05;16.50;99.90
42615;DHT22;28754;47.700;7.924;2022-09-09T17:31:53;16.30;99.90
42615;DHT22;28754;47.700;7.924;2022-09-09T17:34:41;16.20;99.90
42615;DHT22;28754;47.700;7.924;2022-09-09T17:37:27;16.20;99.90
42615;DHT22;28754;47.700;7.924;2022-09-09T17:40:14;16.20;99.90
42615;DHT22;28754;47.700;7.924;2022-09-09T17:43:01;16.10;99.90
42615;DHT22;28754;47.700;7.924;2022-09-09T17:45:47;16.20;99.90
42615;DHT22;28754;47.700;7.924;2022-09-09T17:48:34;16.30;99.90
42615;DHT22;28754;47.700;7.924;2022-09-09T17:51:24;16.20;99.90
42615;DHT22;28754;47.700;7.924;2022-09-09T17:54:16;16.10;99.90
42615;DHT22;28754;47.700;7.924;2022-09-09T17:57:05;15.90;99.90
42615;DHT22;28754;47.700;7.924;2022-09-09T17:59:52;15.90;99.90
42615;DHT22;28754;47.700;7.924;2022-09-09T18:02:39;15.90;99.90
42615;DHT22;28754;47.700;7.924;2022-09-09T18:05:26;16.10;99.90
42615;DHT22;28754;47.700;7.924;2022-09-09T18:08:12;16.00;99.90
42615;DHT22;28754;47.700;7.924;2022-09-09T18:10:59;16.00;99.90
42615;DHT22;28754;47.700;7.924;2022-09-09T18:13:51;15.90;99.90
42615;DHT22;28754;47.700;7.924;2022-09-09T18:16:39;16.00;99.90
42615;DHT22;28754;47.700;7.924;2022-09-09T18:19:28;15.90;99.90
42615;DHT22;28754;47.700;7.924;2022-09-09T18:22:17;15.90;99.90
42615;DHT22;28754;47.700;7.924;2022-09-09T18:25:05;15.80;99.90
42615;DHT22;28754;47.700;7.924;2022-09-09T18:27:51;15.70;99.90
42615;DHT22;28754;47.700;7.924;2022-09-09T18:30:40;15.70;99.90
42615;DHT22;28754;47.700;7.924;2022-09-09T18:33:26;15.80;99.90
42615;DHT22;28754;47.700;7.924;2022-09-09T18:36:17;15.80;99.90
42615;DHT22;28754;47.700;7.924;2022-09-09T18:39:07;15.60;99.90
42615;DHT22;28754;47.700;7.924;2022-09-09T18:41:58;15.60;99.90
42615;DHT22;28754;47.700;7.924;2022-09-09T18:44:46;15.60;99.90
42615;DHT22;28754;47.700;7.924;2022-09-09T18:47:33;15.60;99.90
42615;DHT22;28754;47.700;7.924;2022-09-09T18:50:20;15.60;99.90
42615;DHT22;28754;47.700;7.924;2022-09-09T18:53:06;15.60;99.90
42615;DHT22;28754;47.700;7.924;2022-09-09T18:55:58;15.50;99.90
42615;DHT22;28754;47.700;7.924;2022-09-09T18:58:50;15.50;99.90
42615;DHT22;28754;47.700;7.924;2022-09-09T19:01:37;15.70;99.90
42615;DHT22;28754;47.700;7.924;2022-09-09T19:04:24;15.90;99.90
42615;DHT22;28754;47.700;7.924;2022-09-09T19:07:12;15.80;99.90
42615;DHT22;28754;47.700;7.924;2022-09-09T19:09:59;15.90;99.90
42615;DHT22;28754;47.700;7.924;2022-09-09T19:12:47;16.00;99.90
42615;DHT22;28754;47.700;7.924;2022-09-09T19:15:35;15.90;99.90
42615;DHT22;28754;47.700;7.924;2022-09-09T19:18:22;15.80;99.90
42615;DHT22;28754;47.700;7.924;2022-09-09T19:21:26;15.70;99.90